Sumifukumaru No.5 — JD3058 — position and weather

sailwx.info

Track history (hours):
 
Tides and Currents Weather Stations Pressure Air Temp Water Temp Dewpoint Dewpoint Depression Visibility Wind Speed Wind Dir Waves Ship Positions

Sumifukumaru No.5

Last reported at 2017-Feb-19 03:27 UTC. Time now 2017-Feb-20 18:32 UTC.
Position N 34°06' E 132°48'.

Length 75 m; draft 4.4 m.

Type: Cargo ship. MMSI: 431001371.

Date/timePositionNaut miles runAvg speedWind from/ knotsBaromVisibWave heightAir tempDewpointWater temp
2017-Feb-19 03:27N 34°06' E 132°48'1112.2
2017-Feb-19 02:33N 34°01' E 132°37'1211.8
2017-Feb-19 01:34N 33°53' E 132°26'  
2017-Feb-15 09:26N 33°42' E 132°21'1112.3
2017-Feb-15 08:33N 33°49' E 132°31'1312.9
2017-Feb-15 07:33N 33°57' E 132°42'355 9.6
2017-Feb-13 18:30N 35°09' E 139°44'910.1
2017-Feb-13 17:34N 35°19' E 139°44'7 6.7
2017-Feb-13 16:32N 35°24' E 139°48'4 4.3
2017-Feb-13 15:34N 35°21' E 139°51'0 0.0
2017-Feb-13 14:31N 35°21' E 139°51'0 0.0
2017-Feb-13 13:31N 35°21' E 139°51'0 0.0
2017-Feb-13 12:31N 35°21' E 139°51'0 0.0
2017-Feb-13 11:13N 35°21' E 139°51'0 0.0
2017-Feb-13 10:25N 35°21' E 139°51'0 0.0
2017-Feb-13 09:25N 35°21' E 139°51'0 0.0
2017-Feb-13 08:31N 35°21' E 139°51'0 0.0
2017-Feb-13 07:13N 35°21' E 139°51'0 0.0
2017-Feb-13 06:31N 35°21' E 139°51'0 0.0
2017-Feb-13 05:28N 35°21' E 139°51'0 0.0
2017-Feb-13 04:31N 35°21' E 139°51'0 0.0
2017-Feb-13 03:31N 35°21' E 139°51'0 0.0
2017-Feb-13 02:28N 35°21' E 139°51'0 0.0
2017-Feb-13 01:31N 35°21' E 139°51'0 0.0
2017-Feb-13 00:28N 35°21' E 139°51'0 0.0
2017-Feb-12 23:28N 35°21' E 139°51'0 0.0
2017-Feb-12 22:28N 35°21' E 139°51'0 0.0
2017-Feb-12 21:22N 35°21' E 139°51'0 0.0
2017-Feb-12 20:16N 35°21' E 139°51'0 0.0
2017-Feb-12 19:28N 35°21' E 139°51'0 0.0
2017-Feb-12 18:22N 35°21' E 139°51'0 0.0
2017-Feb-12 17:31N 35°21' E 139°51'0 0.0
2017-Feb-12 16:31N 35°21' E 139°51'0 0.0
2017-Feb-12 15:28N 35°21' E 139°51'0 0.0
2017-Feb-12 14:28N 35°21' E 139°51'0 0.0
2017-Feb-12 13:22N 35°21' E 139°51'0 0.0
2017-Feb-12 12:28N 35°21' E 139°51'0 0.0
2017-Feb-12 11:22N 35°21' E 139°51'0 0.0
2017-Feb-12 10:28N 35°21' E 139°51'0 0.0
2017-Feb-12 09:28N 35°21' E 139°51'0 0.0
2017-Feb-12 08:28N 35°21' E 139°51'0 0.0
2017-Feb-12 07:28N 35°21' E 139°51'0 0.0
2017-Feb-12 06:28N 35°21' E 139°51'0 0.0
2017-Feb-12 05:22N 35°21' E 139°51'0 0.0
2017-Feb-12 04:31N 35°21' E 139°51'0 0.0
2017-Feb-12 03:31N 35°21' E 139°51'0 0.0
2017-Feb-12 02:31N 35°21' E 139°51'0 0.0
2017-Feb-12 01:28N 35°21' E 139°51'0 0.0
2017-Feb-12 00:31N 35°21' E 139°51'0 0.0
2017-Feb-11 23:28N 35°21' E 139°51'0 0.0
2017-Feb-11 22:28N 35°21' E 139°51'0 0.0
2017-Feb-11 21:28N 35°21' E 139°51'0 0.0
2017-Feb-11 20:07N 35°21' E 139°51'0 0.0
2017-Feb-11 19:31N 35°21' E 139°51'0 0.0
2017-Feb-11 18:28N 35°21' E 139°51'0 0.0
2017-Feb-11 17:28N 35°21' E 139°51'0 0.0
2017-Feb-11 16:28N 35°21' E 139°51'0 0.0
2017-Feb-11 15:31N 35°21' E 139°51'0 0.0
2017-Feb-11 14:25N 35°21' E 139°51'0 0.0
2017-Feb-11 13:28N 35°21' E 139°51'0 0.0
2017-Feb-11 12:28N 35°21' E 139°51'0 0.0
2017-Feb-11 11:31N 35°21' E 139°51'0 0.0
2017-Feb-11 10:28N 35°21' E 139°51'0 0.0
2017-Feb-11 09:22N 35°21' E 139°51'0 0.0
2017-Feb-11 08:28N 35°21' E 139°51'0 0.0
2017-Feb-11 07:28N 35°21' E 139°51'0 0.0
2017-Feb-11 06:28N 35°21' E 139°51'0 0.0
2017-Feb-11 05:28N 35°21' E 139°51'0 0.0
2017-Feb-11 04:31N 35°21' E 139°51'0 0.0
2017-Feb-11 03:28N 35°21' E 139°51'0 0.0
2017-Feb-11 02:22N 35°21' E 139°51'0 0.0
2017-Feb-11 01:28N 35°21' E 139°51'0 0.0
2017-Feb-11 00:28N 35°21' E 139°51'0 0.0
2017-Feb-10 23:31N 35°21' E 139°51'2 1.9
2017-Feb-10 22:33N 35°22' E 139°49'0 0.0
2017-Feb-10 21:33N 35°22' E 139°49'0 0.1
2017-Feb-10 20:33N 35°22' E 139°49'0 0.0
2017-Feb-10 19:29N 35°22' E 139°49'0 0.0
2017-Feb-10 18:33N 35°22' E 139°49'0 0.0
2017-Feb-10 17:33N 35°22' E 139°49'0 0.0
2017-Feb-10 16:32N 35°22' E 139°49'0 0.0
2017-Feb-10 15:33N 35°22' E 139°49'0 0.0
2017-Feb-10 14:33N 35°22' E 139°49'0 0.0
2017-Feb-10 13:33N 35°22' E 139°49'0 0.0
2017-Feb-10 12:33N 35°22' E 139°49'0 0.0
2017-Feb-10 11:33N 35°22' E 139°49'0 0.0
2017-Feb-10 10:33N 35°22' E 139°49'0 0.0
2017-Feb-10 09:33N 35°22' E 139°49'0 0.0
2017-Feb-10 08:33N 35°22' E 139°49'0 0.0
2017-Feb-10 07:33N 35°22' E 139°49'0 0.0
2017-Feb-10 06:33N 35°22' E 139°49'0 0.0
2017-Feb-10 05:30N 35°22' E 139°49'0 0.1
2017-Feb-10 04:33N 35°22' E 139°49'0 0.0
2017-Feb-10 03:30N 35°22' E 139°49'0 0.0
2017-Feb-10 02:33N 35°22' E 139°49'  
Track history (hours):
 
Tides and Currents Weather Stations Pressure Air Temp Water Temp Dewpoint Dewpoint Depression Visibility Wind Speed Wind Dir Waves Ship Positions

Sumifukumaru No.5

Last reported at 2017-Feb-19 03:27 UTC. Time now 2017-Feb-20 18:33 UTC.
Position N 34°06' E 132°48'.

Length 75 m; draft 4.4 m.

Type: Cargo ship. MMSI: 431001371.

Date/timePositionNaut miles runAvg speedWind from/ knotsBaromVisibWave heightAir tempDewpointWater temp
2017-Feb-19 03:27N 34°06' E 132°48'1112.2
2017-Feb-19 02:33N 34°01' E 132°37'1211.8
2017-Feb-19 01:34N 33°53' E 132°26'  
2017-Feb-15 09:26N 33°42' E 132°21'1112.3
2017-Feb-15 08:33N 33°49' E 132°31'1312.9
2017-Feb-15 07:33N 33°57' E 132°42'355 9.6
2017-Feb-13 18:30N 35°09' E 139°44'910.1
2017-Feb-13 17:34N 35°19' E 139°44'7 6.7
2017-Feb-13 16:32N 35°24' E 139°48'4 4.3
2017-Feb-13 15:34N 35°21' E 139°51'0 0.0
2017-Feb-13 14:31N 35°21' E 139°51'0 0.0
2017-Feb-13 13:31N 35°21' E 139°51'0 0.0
2017-Feb-13 12:31N 35°21' E 139°51'0 0.0
2017-Feb-13 11:13N 35°21' E 139°51'0 0.0
2017-Feb-13 10:25N 35°21' E 139°51'0 0.0
2017-Feb-13 09:25N 35°21' E 139°51'0 0.0
2017-Feb-13 08:31N 35°21' E 139°51'0 0.0
2017-Feb-13 07:13N 35°21' E 139°51'0 0.0
2017-Feb-13 06:31N 35°21' E 139°51'0 0.0
2017-Feb-13 05:28N 35°21' E 139°51'0 0.0
2017-Feb-13 04:31N 35°21' E 139°51'0 0.0
2017-Feb-13 03:31N 35°21' E 139°51'0 0.0
2017-Feb-13 02:28N 35°21' E 139°51'0 0.0
2017-Feb-13 01:31N 35°21' E 139°51'0 0.0
2017-Feb-13 00:28N 35°21' E 139°51'0 0.0
2017-Feb-12 23:28N 35°21' E 139°51'0 0.0
2017-Feb-12 22:28N 35°21' E 139°51'0 0.0
2017-Feb-12 21:22N 35°21' E 139°51'0 0.0
2017-Feb-12 20:16N 35°21' E 139°51'0 0.0
2017-Feb-12 19:28N 35°21' E 139°51'0 0.0
2017-Feb-12 18:22N 35°21' E 139°51'0 0.0
2017-Feb-12 17:31N 35°21' E 139°51'0 0.0
2017-Feb-12 16:31N 35°21' E 139°51'0 0.0
2017-Feb-12 15:28N 35°21' E 139°51'0 0.0
2017-Feb-12 14:28N 35°21' E 139°51'0 0.0
2017-Feb-12 13:22N 35°21' E 139°51'0 0.0
2017-Feb-12 12:28N 35°21' E 139°51'0 0.0
2017-Feb-12 11:22N 35°21' E 139°51'0 0.0
2017-Feb-12 10:28N 35°21' E 139°51'0 0.0
2017-Feb-12 09:28N 35°21' E 139°51'0 0.0
2017-Feb-12 08:28N 35°21' E 139°51'0 0.0
2017-Feb-12 07:28N 35°21' E 139°51'0 0.0
2017-Feb-12 06:28N 35°21' E 139°51'0 0.0
2017-Feb-12 05:22N 35°21' E 139°51'0 0.0
2017-Feb-12 04:31N 35°21' E 139°51'0 0.0
2017-Feb-12 03:31N 35°21' E 139°51'0 0.0
2017-Feb-12 02:31N 35°21' E 139°51'0 0.0
2017-Feb-12 01:28N 35°21' E 139°51'0 0.0
2017-Feb-12 00:31N 35°21' E 139°51'0 0.0
2017-Feb-11 23:28N 35°21' E 139°51'0 0.0
2017-Feb-11 22:28N 35°21' E 139°51'0 0.0
2017-Feb-11 21:28N 35°21' E 139°51'0 0.0
2017-Feb-11 20:07N 35°21' E 139°51'0 0.0
2017-Feb-11 19:31N 35°21' E 139°51'0 0.0
2017-Feb-11 18:28N 35°21' E 139°51'0 0.0
2017-Feb-11 17:28N 35°21' E 139°51'0 0.0
2017-Feb-11 16:28N 35°21' E 139°51'0 0.0
2017-Feb-11 15:31N 35°21' E 139°51'0 0.0
2017-Feb-11 14:25N 35°21' E 139°51'0 0.0
2017-Feb-11 13:28N 35°21' E 139°51'0 0.0
2017-Feb-11 12:28N 35°21' E 139°51'0 0.0
2017-Feb-11 11:31N 35°21' E 139°51'0 0.0
2017-Feb-11 10:28N 35°21' E 139°51'0 0.0
2017-Feb-11 09:22N 35°21' E 139°51'0 0.0
2017-Feb-11 08:28N 35°21' E 139°51'0 0.0
2017-Feb-11 07:28N 35°21' E 139°51'0 0.0
2017-Feb-11 06:28N 35°21' E 139°51'0 0.0
2017-Feb-11 05:28N 35°21' E 139°51'0 0.0
2017-Feb-11 04:31N 35°21' E 139°51'0 0.0
2017-Feb-11 03:28N 35°21' E 139°51'0 0.0
2017-Feb-11 02:22N 35°21' E 139°51'0 0.0
2017-Feb-11 01:28N 35°21' E 139°51'0 0.0
2017-Feb-11 00:28N 35°21' E 139°51'0 0.0
2017-Feb-10 23:31N 35°21' E 139°51'2 1.9
2017-Feb-10 22:33N 35°22' E 139°49'0 0.0
2017-Feb-10 21:33N 35°22' E 139°49'0 0.1
2017-Feb-10 20:33N 35°22' E 139°49'0 0.0
2017-Feb-10 19:29N 35°22' E 139°49'0 0.0
2017-Feb-10 18:33N 35°22' E 139°49'0 0.0
2017-Feb-10 17:33N 35°22' E 139°49'0 0.0
2017-Feb-10 16:32N 35°22' E 139°49'0 0.0
2017-Feb-10 15:33N 35°22' E 139°49'0 0.0
2017-Feb-10 14:33N 35°22' E 139°49'0 0.0
2017-Feb-10 13:33N 35°22' E 139°49'0 0.0
2017-Feb-10 12:33N 35°22' E 139°49'0 0.0
2017-Feb-10 11:33N 35°22' E 139°49'0 0.0
2017-Feb-10 10:33N 35°22' E 139°49'0 0.0
2017-Feb-10 09:33N 35°22' E 139°49'0 0.0
2017-Feb-10 08:33N 35°22' E 139°49'0 0.0
2017-Feb-10 07:33N 35°22' E 139°49'0 0.0
2017-Feb-10 06:33N 35°22' E 139°49'0 0.0
2017-Feb-10 05:30N 35°22' E 139°49'0 0.1
2017-Feb-10 04:33N 35°22' E 139°49'0 0.0
2017-Feb-10 03:30N 35°22' E 139°49'0 0.0
2017-Feb-10 02:33N 35°22' E 139°49'  

Dump ship's entire track history